Time;durP1;ratioP1;P1;durP2;ratioP2;P2;SDS_P1;SDS_P2;PMS_P1;PMS_P2;Temp;Humidity;BMP_temperature;BMP_pressure;BME280_temperature;BME280_humidity;BME280_pressure;Samples;Min_cycle;Max_cycle;Signal;HPM_P1;HPM_P2
2022/02/24 00:00:23;;;;;;;6.10;3.80;;;4.00;89.60;;;2.94;77.59;97767.31;5070957;28;20392;-72
2022/02/24 00:02:50;;;;;;;3.53;2.90;;;4.10;89.60;;;2.98;77.67;97768.56;5070566;28;20480;-72
2022/02/24 00:05:16;;;;;;;8.82;3.63;;;4.10;89.50;;;3.06;77.43;97763.97;5070812;28;20873;-72
2022/02/24 00:07:44;;;;;;;4.70;3.10;;;4.20;89.60;;;3.15;77.50;97769.88;5070501;28;20402;-72
2022/02/24 00:10:13;;;;;;;4.45;3.17;;;4.30;89.50;;;3.23;77.24;97763.66;5070836;28;20873;-72
2022/02/24 00:12:41;;;;;;;4.83;3.17;;;4.40;89.40;;;3.33;77.27;97772.75;5070313;28;20731;-72
2022/02/24 00:15:08;;;;;;;6.15;3.00;;;4.50;89.30;;;3.45;77.00;97759.91;5070718;28;20480;-72
2022/02/24 00:17:35;;;;;;;6.38;3.53;;;4.60;89.00;;;3.55;76.65;97757.72;5070223;28;20419;-72
2022/02/24 00:20:02;;;;;;;5.03;3.30;;;4.70;88.80;;;3.69;76.24;97763.78;5070599;28;20403;-72
2022/02/24 00:22:28;;;;;;;4.13;2.90;;;4.80;88.50;;;3.79;75.94;97753.75;5070134;28;20403;-72
2022/02/24 00:24:55;;;;;;;3.85;2.70;;;4.90;88.10;;;3.88;75.65;97757.81;5069944;28;20437;-72
2022/02/24 00:27:21;;;;;;;4.73;2.60;;;5.00;87.70;;;3.96;75.26;97757.59;5070127;28;20387;-72
2022/02/24 00:29:47;;;;;;;6.10;3.50;;;5.10;87.50;;;4.10;74.64;97747.94;5070330;28;20460;-72
2022/02/24 00:32:13;;;;;;;6.80;3.30;;;5.20;86.80;;;4.17;74.50;97749.56;5069877;28;20835;-72
2022/02/24 00:34:39;;;;;;;4.65;3.03;;;5.30;86.50;;;4.23;74.45;97745.31;5070348;28;20867;-71
2022/02/24 00:37:05;;;;;;;6.63;3.13;;;5.30;86.40;;;4.24;74.26;97739.06;5069939;28;20481;-71
2022/02/24 00:39:31;;;;;;;4.03;2.53;;;5.30;86.10;;;4.25;74.16;97740.69;5070250;28;20773;-72
2022/02/24 00:41:59;;;;;;;5.15;2.67;;;5.30;86.10;;;4.26;74.17;97735.25;5069639;28;20445;-71
2022/02/24 00:44:25;;;;;;;5.28;2.83;;;5.40;86.20;;;4.29;74.20;97731.41;5070222;28;20399;-71
2022/02/24 00:46:51;;;;;;;4.33;2.87;;;5.40;86.10;;;4.31;73.99;97723.34;5069925;28;20408;-72
2022/02/24 00:49:18;;;;;;;4.75;2.60;;;5.40;86.00;;;4.31;74.14;97725.97;5069995;28;20947;-72
2022/02/24 00:51:43;;;;;;;5.07;2.90;;;5.40;86.10;;;4.31;74.17;97724.16;5069495;28;20731;-72
2022/02/24 00:54:12;;;;;;;3.90;2.40;;;5.40;86.20;;;4.31;74.35;97728.59;5052021;28;20406;-72
2022/02/24 00:56:38;;;;;;;3.22;2.25;;;5.40;86.20;;;4.31;74.29;97728.59;5069791;28;20415;-72
2022/02/24 00:59:05;;;;;;;4.88;2.90;;;5.40;86.30;;;4.29;74.51;97732.22;5070089;28;20446;-72
2022/02/24 01:01:31;;;;;;;4.85;2.47;;;5.40;86.40;;;4.31;74.42;97729.41;5070058;28;20787;-71
2022/02/24 01:03:57;;;;;;;4.17;2.57;;;5.40;86.50;;;4.31;74.63;97721.53;5069495;28;20412;-72
2022/02/24 01:06:23;;;;;;;4.18;2.40;;;5.40;86.70;;;4.32;74.34;97714.47;5069824;28;20396;-73
2022/02/24 01:08:49;;;;;;;4.30;2.92;;;5.40;86.70;;;4.33;74.73;97722.16;5069681;28;20490;-72
2022/02/24 01:11:15;;;;;;;3.70;2.70;;;5.40;86.60;;;4.38;74.36;97716.28;5069909;28;20487;-72
2022/02/24 01:13:42;;;;;;;3.92;2.53;;;5.50;86.50;;;4.40;74.31;97722.13;5069326;28;20836;-71
2022/02/24 01:16:09;;;;;;;5.05;2.67;;;5.50;86.40;;;4.40;74.16;97722.94;5069511;28;20418;-71
2022/02/24 01:18:36;;;;;;;4.30;2.50;;;5.50;86.10;;;4.40;74.05;97719.53;5069678;28;20403;-72
2022/02/24 01:21:02;;;;;;;5.38;2.85;;;5.50;86.00;;;4.42;73.95;97725.38;5069792;28;20486;-71
2022/02/24 01:23:28;;;;;;;4.30;2.60;;;5.50;85.90;;;4.41;73.98;97732.44;5069319;28;20408;-72
2022/02/24 01:25:54;;;;;;;5.97;2.83;;;5.50;85.90;;;4.42;74.08;97723.56;5069435;28;20411;-71
2022/02/24 01:28:19;;;;;;;4.10;2.60;;;5.50;86.00;;;4.40;73.98;97716.91;5069688;28;20486;-72
2022/02/24 01:30:45;;;;;;;4.45;2.60;;;5.50;85.90;;;4.42;74.04;97714.88;5069741;28;20395;-71
2022/02/24 01:33:13;;;;;;;5.63;2.70;;;5.50;85.90;;;4.42;73.77;97718.31;5069153;28;20493;-71
2022/02/24 01:35:38;;;;;;;4.97;2.67;;;5.50;85.70;;;4.40;73.97;97709.03;5069592;28;20395;-71
2022/02/24 01:38:04;;;;;;;5.60;3.28;;;5.50;85.90;;;4.35;73.98;97707.03;5071336;28;20391;-71
2022/02/24 01:40:30;;;;;;;4.72;2.80;;;5.50;85.90;;;4.28;74.07;97707.00;5073692;28;20403;-71
2022/02/24 01:42:56;;;;;;;5.72;2.75;;;5.40;85.90;;;4.26;74.24;97701.19;5073051;28;20491;-71
2022/02/24 01:45:22;;;;;;;4.20;2.87;;;5.40;86.90;;;4.19;74.12;97697.78;5073555;28;20491;-72
2022/02/24 01:47:48;;;;;;;4.00;2.70;;;5.30;86.10;;;4.12;74.45;97693.53;5073153;28;20434;-70
2022/02/24 01:50:15;;;;;;;4.77;2.77;;;5.30;87.00;;;4.02;74.52;97682.66;5073522;28;20581;-71
2022/02/24 01:52:42;;;;;;;4.68;2.90;;;5.20;86.30;;;3.95;74.88;97682.66;5072821;28;20881;-71
2022/02/24 01:55:09;;;;;;;5.70;3.20;;;5.10;86.60;;;3.88;75.07;97680.06;5073402;28;20396;-71
2022/02/24 01:57:35;;;;;;;4.13;2.90;;;5.00;87.80;;;3.83;75.48;97671.97;5072730;28;20909;-71
2022/02/24 02:00:05;;;;;;;6.32;3.33;;;5.00;87.30;;;3.79;75.55;97673.38;5068908;28;20838;-72
2022/02/24 02:02:31;;;;;;;4.70;3.45;;;4.90;87.60;;;3.78;75.89;97661.31;5061308;28;20413;-71
2022/02/24 02:04:57;;;;;;;6.23;3.57;;;4.90;87.80;;;3.78;75.78;97660.50;5073050;28;20411;-71
2022/02/24 02:07:24;;;;;;;4.88;3.30;;;4.90;87.80;;;3.75;75.86;97655.69;5072775;28;20525;-71
2022/02/24 02:09:51;;;;;;;4.95;3.30;;;4.90;87.80;;;3.69;75.98;97651.22;5079924;28;20407;-71
2022/02/24 02:12:18;;;;;;;4.72;3.05;;;4.80;87.80;;;3.67;75.94;97653.25;5072480;28;20435;-71
2022/02/24 02:14:44;;;;;;;5.60;3.55;;;4.80;87.90;;;3.64;76.27;97649.22;5073084;28;20396;-72
2022/02/24 02:17:10;;;;;;;6.07;3.50;;;4.80;88.00;;;3.64;76.21;97645.78;5070485;28;20997;-71
2022/02/24 02:19:37;;;;;;;4.70;3.30;;;4.80;88.30;;;3.65;76.28;97647.41;5072640;28;20427;-72
2022/02/24 02:22:05;;;;;;;6.00;3.08;;;4.80;88.40;;;3.64;76.28;97638.75;5072393;28;20457;-72
2022/02/24 02:24:31;;;;;;;5.97;3.42;;;4.80;88.30;;;3.63;76.41;97637.13;5072951;28;20402;-71
2022/02/24 02:26:57;;;;;;;5.10;2.97;;;4.80;88.40;;;3.59;76.16;97633.31;5072539;28;20391;-72
2022/02/24 02:29:23;;;;;;;5.15;3.30;;;4.70;88.30;;;3.59;76.29;97632.50;5072693;28;20395;-71
2022/02/24 02:31:49;;;;;;;4.80;3.25;;;4.80;88.40;;;3.59;76.35;97622.84;5072299;28;20908;-72
2022/02/24 02:34:17;;;;;;;4.70;3.45;;;4.70;88.40;;;3.59;76.69;97619.41;5072719;28;20407;-72
2022/02/24 02:36:45;;;;;;;5.28;3.25;;;4.70;88.50;;;3.57;76.68;97626.66;5072115;28;20443;-71
2022/02/24 02:39:15;;;;;;;4.50;3.08;;;4.70;88.70;;;3.62;76.90;97626.84;5079424;28;20419;-71
2022/02/24 02:41:47;;;;;;;5.20;3.30;;;4.70;88.70;;;3.64;76.70;97619.63;5071887;28;20414;-71
2022/02/24 02:44:15;;;;;;;6.45;3.70;;;4.80;88.70;;;3.64;76.75;97622.22;5072575;28;20415;-71
2022/02/24 02:46:41;;;;;;;5.72;3.47;;;4.80;88.80;;;3.66;76.87;97621.03;5072114;28;20407;-71
2022/02/24 02:49:07;;;;;;;4.93;3.20;;;4.80;88.80;;;3.73;76.62;97616.59;5071893;28;20494;-71
2022/02/24 02:51:33;;;;;;;6.90;3.30;;;4.80;88.80;;;3.75;76.61;97611.97;5071066;28;20468;-72
2022/02/24 02:53:59;;;;;;;6.00;3.20;;;4.90;88.80;;;3.79;76.47;97605.31;5071835;28;20412;-71
2022/02/24 02:56:26;;;;;;;4.90;3.25;;;4.90;88.50;;;3.85;76.37;97601.06;5071886;28;20420;-70
2022/02/24 02:58:52;;;;;;;7.00;3.40;;;4.90;88.50;;;3.89;76.16;97604.91;5072243;28;20403;-71
2022/02/24 03:01:18;;;;;;;4.73;3.50;;;5.00;88.40;;;3.96;76.05;97604.91;5072159;28;20749;-71
2022/02/24 03:03:45;;;;;;;7.68;3.63;;;5.10;88.40;;;4.00;76.01;97596.44;5071623;28;21113;-71
2022/02/24 03:06:10;;;;;;;5.40;3.10;;;5.10;88.10;;;4.03;75.82;97598.66;5070547;28;20428;-71
2022/02/24 03:08:36;;;;;;;5.47;2.97;;;5.10;87.90;;;4.07;75.90;97589.34;5071930;28;20399;-71
2022/02/24 03:11:03;;;;;;;6.38;3.17;;;5.20;88.00;;;4.11;75.59;97587.16;5072071;28;20621;-71
2022/02/24 03:13:30;;;;;;;3.95;2.90;;;5.20;87.80;;;4.15;75.57;97591.75;5071573;28;20483;-71
2022/02/24 03:15:56;;;;;;;4.70;3.40;;;5.20;87.70;;;4.18;75.56;97580.06;5071581;28;20403;-71
2022/02/24 03:18:22;;;;;;;6.47;2.88;;;5.20;87.60;;;4.20;75.51;97586.72;5071777;28;20414;-71
2022/02/24 03:20:48;;;;;;;4.53;2.65;;;5.30;87.60;;;4.23;75.35;97575.00;5071870;28;20400;-71
2022/02/24 03:23:13;;;;;;;4.60;3.08;;;5.30;87.50;;;4.27;75.23;97576.22;5071290;28;20431;-71
2022/02/24 03:25:39;;;;;;;6.43;3.00;;;5.40;87.50;;;4.29;75.27;97569.75;5071748;28;20404;-71
2022/02/24 03:28:06;;;;;;;4.25;3.00;;;5.40;87.40;;;4.33;75.17;97571.97;5070094;28;20893;-71
2022/02/24 03:30:34;;;;;;;5.80;3.22;;;5.40;87.20;;;4.38;74.91;97559.84;5071657;28;20469;-71
2022/02/24 03:33:02;;;;;;;4.65;2.80;;;5.50;87.20;;;4.44;74.61;97559.00;5071079;28;20828;-71
2022/02/24 03:35:28;;;;;;;6.90;3.38;;;5.50;86.70;;;4.49;74.39;97558.41;5071444;28;20392;-71
2022/02/24 03:37:55;;;;;;;5.38;2.90;;;5.60;86.50;;;4.54;74.17;97553.34;5070979;28;20412;-71
2022/02/24 03:40:20;;;;;;;4.35;2.83;;;5.60;86.20;;;4.58;73.95;97551.94;5071416;28;20404;-71
2022/02/24 03:42:48;;;;;;;4.78;2.65;;;5.70;86.10;;;4.62;73.86;97551.28;5070893;28;20414;-71
2022/02/24 03:45:15;;;;;;;6.25;3.15;;;5.70;85.90;;;4.67;73.75;97553.28;5071397;28;20408;-71
2022/02/24 03:47:42;;;;;;;5.07;3.13;;;5.80;85.80;;;4.72;73.57;97552.66;5070927;28;20399;-71
2022/02/24 03:50:13;;;;;;;3.88;2.78;;;5.80;85.70;;;4.73;73.42;97541.16;5070066;28;20404;-70
2022/02/24 03:52:40;;;;;;;5.18;3.03;;;5.80;85.50;;;4.73;73.38;97539.34;5070663;28;20404;-71
2022/02/24 03:55:08;;;;;;;7.05;3.10;;;5.80;85.50;;;4.68;73.39;97545.19;5071149;28;20410;-72
2022/02/24 03:57:34;;;;;;;4.97;2.75;;;5.80;85.50;;;4.65;73.63;97552.69;5070422;28;20793;-71
2022/02/24 03:59:59;;;;;;;5.72;3.20;;;5.70;85.60;;;4.63;73.82;97550.28;5070215;28;20415;-72
2022/02/24 04:02:25;;;;;;;5.10;3.17;;;5.70;85.70;;;4.60;73.79;97542.81;5070418;28;20403;-72
2022/02/24 04:04:53;;;;;;;4.60;3.00;;;5.70;85.80;;;4.58;73.82;97538.81;5070967;28;20484;-72
2022/02/24 04:07:18;;;;;;;4.25;2.42;;;5.70;85.80;;;4.55;74.02;97541.84;5070563;28;20396;-72
2022/02/24 04:09:44;;;;;;;4.28;2.80;;;5.70;86.00;;;4.51;73.86;97541.44;5070757;28;20415;-72
2022/02/24 04:12:10;;;;;;;4.20;2.87;;;5.60;85.90;;;4.50;73.99;97536.44;5070405;28;20436;-71
2022/02/24 04:14:36;;;;;;;5.15;3.00;;;5.60;86.00;;;4.43;73.92;97531.22;5070767;28;20423;-72
2022/02/24 04:17:03;;;;;;;7.47;3.00;;;5.50;85.90;;;4.37;74.29;97525.97;5070427;28;20413;-71
2022/02/24 04:19:29;;;;;;;4.22;2.88;;;5.50;86.10;;;4.31;74.35;97518.97;5070326;28;20395;-71
2022/02/24 04:21:57;;;;;;;4.05;3.10;;;5.40;86.30;;;4.19;74.45;97519.63;5066771;28;20739;-72
2022/02/24 04:24:22;;;;;;;5.40;3.40;;;5.30;86.50;;;4.13;74.92;97519.66;5070501;28;20463;-72
2022/02/24 04:26:48;;;;;;;4.75;2.83;;;5.30;86.90;;;4.02;75.26;97507.97;5070213;28;20494;-71
2022/02/24 04:29:14;;;;;;;5.43;3.15;;;5.10;87.00;;;3.97;75.49;97514.84;5070496;28;20408;-72
2022/02/24 04:31:40;;;;;;;7.55;2.90;;;5.10;87.40;;;3.90;75.62;97514.88;5069792;28;20410;-71
2022/02/24 04:34:06;;;;;;;5.90;2.95;;;5.10;87.60;;;3.82;75.58;97512.47;5070373;28;20439;-71
2022/02/24 04:36:32;;;;;;;6.50;2.87;;;5.00;87.60;;;3.76;76.12;97506.22;5052070;28;20465;-70
2022/02/24 04:38:59;;;;;;;6.03;3.47;;;4.90;88.00;;;3.73;76.35;97506.66;5070159;28;20438;-70
2022/02/24 04:41:25;;;;;;;7.25;3.30;;;4.80;88.30;;;3.76;76.70;97505.44;5070252;28;20399;-70
2022/02/24 04:43:51;;;;;;;6.18;3.63;;;4.90;88.80;;;3.81;76.55;97503.81;5070283;28;20412;-71
2022/02/24 04:46:17;;;;;;;4.93;2.97;;;4.90;88.90;;;3.85;76.49;97497.16;5069751;28;20403;-71
2022/02/24 04:48:43;;;;;;;4.65;3.17;;;5.00;88.80;;;3.92;76.31;97491.09;5070025;28;20411;-70
2022/02/24 04:51:09;;;;;;;6.05;3.40;;;5.00;88.70;;;3.98;76.44;97490.28;5070218;28;20449;-72
2022/02/24 04:53:35;;;;;;;5.57;3.33;;;5.10;88.70;;;4.04;76.33;97489.44;5069725;28;20457;-71
2022/02/24 04:56:02;;;;;;;5.22;3.38;;;5.10;88.50;;;4.09;76.15;97477.34;5069636;28;20400;-70
2022/02/24 04:58:28;;;;;;;3.75;2.60;;;5.20;88.40;;;4.13;76.09;97475.91;5070141;28;20515;-72
2022/02/24 05:00:55;;;;;;;7.57;3.50;;;5.20;88.20;;;4.14;75.95;97461.78;5070081;28;20716;-71
2022/02/24 05:03:21;;;;;;;4.67;3.10;;;5.30;88.00;;;4.14;75.72;97453.94;5069531;28;20418;-71
2022/02/24 05:05:46;;;;;;;5.90;3.40;;;5.30;87.90;;;4.09;75.80;97451.13;5070148;28;20908;-71
2022/02/24 05:08:12;;;;;;;4.17;2.90;;;5.20;87.70;;;4.03;75.76;97451.16;5069652;28;20408;-71
2022/02/24 05:10:38;;;;;;;5.05;3.13;;;5.10;87.70;;;3.94;75.88;97447.16;5069911;28;20496;-71
2022/02/24 05:13:06;;;;;;;5.65;3.10;;;5.10;87.90;;;3.84;76.40;97447.59;5069406;28;20400;-71
2022/02/24 05:15:31;;;;;;;4.90;3.20;;;5.00;88.50;;;3.75;76.66;97438.38;5052034;28;20895;-70
2022/02/24 05:17:57;;;;;;;5.43;3.47;;;4.90;88.70;;;3.68;76.76;97429.75;5069332;28;21067;-70
2022/02/24 05:20:23;;;;;;;3.97;2.88;;;4.80;88.90;;;3.61;76.88;97436.81;5069897;28;20416;-71
2022/02/24 05:22:49;;;;;;;7.47;3.27;;;4.80;89.00;;;3.58;77.23;97429.38;5069267;28;20406;-71
2022/02/24 05:25:16;;;;;;;7.20;3.30;;;4.70;89.30;;;3.49;77.35;97432.19;5069754;28;20881;-71
2022/02/24 05:27:43;;;;;;;4.57;3.15;;;4.60;89.50;;;3.46;77.57;97439.66;5069418;28;20804;-71
2022/02/24 05:30:14;;;;;;;6.90;3.30;;;4.60;89.60;;;3.40;77.71;97428.19;5069845;28;20399;-71
2022/02/24 05:32:40;;;;;;;6.00;3.92;;;4.60;90.00;;;3.38;77.93;97426.81;5069154;28;20765;-71
2022/02/24 05:35:06;;;;;;;7.50;3.90;;;4.50;90.10;;;3.40;78.26;97427.38;5069731;28;20449;-71
2022/02/24 05:37:34;;;;;;;5.20;3.60;;;4.50;90.20;;;3.40;78.27;97415.09;5069202;28;20473;-71
2022/02/24 05:40:01;;;;;;;7.32;4.10;;;4.50;90.20;;;3.39;78.23;97431.81;5069677;28;20490;-72
2022/02/24 05:42:27;;;;;;;6.63;3.83;;;4.50;90.20;;;3.38;78.40;97422.34;5069221;28;20399;-71
2022/02/24 05:44:52;;;;;;;7.20;3.70;;;4.50;90.30;;;3.37;78.27;97431.22;5069630;28;21031;-71
2022/02/24 05:47:20;;;;;;;8.80;4.57;;;4.50;90.20;;;3.36;78.52;97429.63;5069288;28;20839;-71
2022/02/24 05:49:46;;;;;;;8.98;4.35;;;4.50;90.30;;;3.37;78.53;97419.97;5069437;28;20970;-71
2022/02/24 05:52:12;;;;;;;9.73;4.18;;;4.50;90.30;;;3.40;78.47;97417.72;5069118;28;20407;-71
2022/02/24 05:54:38;;;;;;;7.38;4.70;;;4.60;90.40;;;3.41;78.58;97414.09;5069384;28;20419;-71
2022/02/24 05:57:04;;;;;;;6.35;4.22;;;4.60;90.40;;;3.41;78.33;97406.25;5069127;28;20439;-71
2022/02/24 05:59:30;;;;;;;7.15;4.32;;;4.60;90.30;;;3.41;78.22;97408.88;5069438;28;20430;-71
2022/02/24 06:01:56;;;;;;;7.53;4.55;;;4.60;90.30;;;3.38;78.32;97408.50;5068802;28;20772;-71
2022/02/24 06:04:24;;;;;;;6.78;4.28;;;4.50;90.30;;;3.36;78.42;97403.47;5069342;28;20404;-71
2022/02/24 06:06:51;;;;;;;9.65;5.20;;;4.50;90.40;;;3.34;78.58;97415.13;5068255;28;20427;-71
2022/02/24 06:09:17;;;;;;;9.75;4.50;;;4.50;90.40;;;3.31;78.68;97416.31;5068442;28;20452;-72
2022/02/24 06:11:44;;;;;;;6.47;4.28;;;4.50;90.40;;;3.32;78.67;97411.91;5067870;28;20907;-71
2022/02/24 06:14:10;;;;;;;5.93;4.38;;;4.50;90.50;;;3.28;78.71;97408.09;5068886;28;20445;-72
2022/02/24 06:16:35;;;;;;;7.10;4.20;;;4.50;90.50;;;3.23;78.76;97413.94;5068206;28;20447;-71
2022/02/24 06:19:01;;;;;;;6.18;4.38;;;4.40;90.40;;;3.17;78.83;97406.91;5066037;28;20411;-72
2022/02/24 06:21:29;;;;;;;8.43;4.22;;;4.40;90.40;;;3.13;79.14;97417.97;5068240;28;20400;-70
2022/02/24 06:23:54;;;;;;;5.07;4.05;;;4.30;90.50;;;3.09;78.81;97422.78;5063735;28;20412;-70
2022/02/24 06:26:20;;;;;;;9.43;5.30;;;4.30;90.50;;;3.10;79.24;97424.41;5072201;28;20473;-70
2022/02/24 06:28:46;;;;;;;7.13;4.78;;;4.30;90.70;;;3.07;79.42;97425.63;5072579;28;20407;-70
2022/02/24 06:31:12;;;;;;;8.60;4.80;;;4.20;90.80;;;3.05;79.38;97419.78;5072698;28;20407;-70
2022/02/24 06:33:38;;;;;;;8.10;5.07;;;4.20;90.90;;;3.13;79.74;97416.16;5072014;28;20457;-70
2022/02/24 06:36:04;;;;;;;8.02;5.50;;;4.30;90.90;;;3.17;79.63;97412.13;5072214;28;20869;-70
2022/02/24 06:38:31;;;;;;;12.20;6.32;;;4.30;90.90;;;3.25;79.52;97413.72;5072446;28;20493;-71
2022/02/24 06:40:58;;;;;;;11.07;5.97;;;4.40;91.00;;;3.28;79.34;97403.66;5072845;28;20400;-69
2022/02/24 06:43:24;;;;;;;13.38;6.25;;;4.40;90.90;;;3.34;79.39;97415.13;5072150;28;20403;-70
2022/02/24 06:45:50;;;;;;;9.77;6.10;;;4.50;90.80;;;3.40;79.21;97407.25;5072349;28;20400;-70
2022/02/24 06:48:16;;;;;;;9.70;5.85;;;4.60;90.80;;;3.45;78.84;97406.66;5072160;28;20404;-70
2022/02/24 06:50:43;;;;;;;9.30;5.53;;;4.60;90.70;;;3.44;78.95;97405.84;5054428;28;20919;-70
2022/02/24 06:53:09;;;;;;;10.27;6.10;;;4.60;90.60;;;3.47;78.72;97405.44;5071955;28;20969;-70
2022/02/24 06:55:37;;;;;;;11.18;6.20;;;4.60;90.60;;;3.48;78.67;97393.94;5072431;28;20406;-70
2022/02/24 06:58:03;;;;;;;9.27;5.75;;;4.60;90.60;;;3.52;78.79;97399.59;5068038;28;20423;-70
2022/02/24 07:00:29;;;;;;;10.02;5.57;;;4.70;90.60;;;3.55;78.88;97395.75;5071666;28;20396;-70
2022/02/24 07:02:55;;;;;;;9.40;5.72;;;4.70;90.50;;;3.56;78.60;97398.16;5070391;28;20478;-69
2022/02/24 07:05:22;;;;;;;9.10;6.00;;;4.70;90.50;;;3.60;78.51;97388.09;5072073;28;20396;-69
2022/02/24 07:07:48;;;;;;;7.93;5.57;;;4.70;90.50;;;3.61;78.51;97392.31;5068250;28;20498;-69
2022/02/24 07:10:15;;;;;;;9.25;5.70;;;4.70;90.40;;;3.62;78.50;97392.09;5069633;28;20897;-72
2022/02/24 07:12:45;;;;;;;10.80;6.18;;;4.70;90.40;;;3.68;78.53;97393.09;5064065;28;20415;-71
2022/02/24 07:15:13;;;;;;;11.73;6.35;;;4.80;90.50;;;3.73;78.12;97390.66;5066616;28;20403;-72
2022/02/24 07:17:40;;;;;;;7.85;5.47;;;4.90;90.50;;;3.78;78.36;97383.78;5063556;28;20412;-71
2022/02/24 07:20:08;;;;;;;7.63;5.78;;;4.90;90.40;;;3.83;78.30;97381.34;5061095;28;20441;-73
2022/02/24 07:22:34;;;;;;;9.38;5.95;;;4.90;90.30;;;3.90;78.02;97373.47;5060192;28;20412;-71
2022/02/24 07:25:00;;;;;;;9.55;5.85;;;5.00;90.20;;;3.97;77.88;97373.44;5060320;28;20917;-71
2022/02/24 07:27:25;;;;;;;9.25;5.78;;;5.10;90.20;;;4.04;77.61;97374.22;5064166;28;20844;-70
2022/02/24 07:29:53;;;;;;;10.05;6.00;;;5.10;90.10;;;4.14;77.42;97377.97;5066490;28;20512;-70
2022/02/24 07:32:19;;;;;;;11.90;6.20;;;5.20;90.00;;;4.21;77.07;97372.72;5064955;28;20407;-71
2022/02/24 07:34:45;;;;;;;8.30;5.22;;;5.30;89.80;;;4.27;77.04;97375.28;5063110;28;20839;-72
2022/02/24 07:37:11;;;;;;;12.98;5.68;;;5.40;90.20;;;4.34;77.01;97369.19;5064262;28;20416;-70
2022/02/24 07:39:37;;;;;;;9.20;5.30;;;5.50;89.60;;;4.44;76.68;97366.88;5070293;28;20422;-70
2022/02/24 07:42:04;;;;;;;9.13;5.18;;;5.50;89.30;;;4.51;76.48;97363.22;5068206;28;20403;-69
2022/02/24 07:44:30;;;;;;;6.70;4.72;;;5.60;89.10;;;4.59;76.11;97362.16;5059529;28;20416;-69
2022/02/24 07:46:57;;;;;;;8.30;5.00;;;5.70;88.90;;;4.66;75.97;97360.31;5061413;28;20929;-69
2022/02/24 07:49:24;;;;;;;7.05;5.38;;;5.70;88.50;;;4.70;75.56;97356.22;5067093;28;20743;-70
2022/02/24 07:51:51;;;;;;;6.88;4.70;;;5.80;88.30;;;4.79;75.29;97351.50;5070161;28;20970;-69
2022/02/24 07:54:18;;;;;;;7.63;4.87;;;5.90;87.90;;;4.86;75.03;97350.44;5070769;28;20490;-68
2022/02/24 07:56:44;;;;;;;7.20;4.63;;;5.90;87.50;;;4.91;74.58;97350.59;5070352;28;20451;-69
2022/02/24 07:59:09;;;;;;;8.27;4.85;;;6.00;87.20;;;4.98;74.58;97343.47;5070841;28;20404;-69
2022/02/24 08:01:35;;;;;;;6.05;4.40;;;6.00;87.20;;;5.05;74.54;97344.19;5070841;28;20443;-69
2022/02/24 08:04:03;;;;;;;6.38;4.82;;;6.10;87.10;;;5.09;74.13;97339.34;5064917;28;20420;-68
2022/02/24 08:06:29;;;;;;;7.40;4.37;;;6.10;86.70;;;5.18;73.98;97329.34;5066869;28;20467;-69
2022/02/24 08:08:55;;;;;;;6.00;4.20;;;6.20;86.60;;;5.24;73.83;97339.78;5064406;28;20495;-69
2022/02/24 08:11:21;;;;;;;7.88;4.85;;;6.30;86.30;;;5.32;73.43;97328.19;5060146;28;20739;-68
2022/02/24 08:13:46;;;;;;;6.00;4.07;;;6.40;86.10;;;5.45;73.14;97335.91;5060516;28;20907;-69
2022/02/24 08:16:12;;;;;;;5.20;3.88;;;6.50;85.60;;;5.52;72.76;97328.75;5058671;28;20398;-68
2022/02/24 08:18:38;;;;;;;6.30;4.27;;;6.50;85.40;;;5.59;72.39;97329.47;5060088;28;20955;-69
2022/02/24 08:21:06;;;;;;;9.27;4.60;;;6.60;85.00;;;5.70;71.80;97325.31;5060546;28;20398;-69
2022/02/24 08:23:32;;;;;;;8.18;4.50;;;6.80;84.30;;;5.77;71.63;97320.78;5061763;28;20407;-69
2022/02/24 08:25:58;;;;;;;9.00;4.60;;;6.80;84.00;;;5.86;71.29;97318.66;5056573;28;21214;-69
2022/02/24 08:28:24;;;;;;;8.30;4.57;;;6.90;83.50;;;5.96;70.77;97318.94;5070156;28;20547;-68
2022/02/24 08:30:50;;;;;;;6.72;4.00;;;7.00;83.10;;;6.09;70.94;97308.28;5070265;28;20482;-69
2022/02/24 08:33:16;;;;;;;7.33;4.60;;;7.10;83.40;;;6.19;70.48;97311.94;5069722;28;21004;-69
2022/02/24 08:35:42;;;;;;;5.65;3.55;;;7.20;83.00;;;6.35;70.38;97309.69;5068865;28;20403;-69
2022/02/24 08:38:09;;;;;;;7.07;4.20;;;7.30;83.10;;;6.41;70.10;97311.41;5069612;28;20469;-70
2022/02/24 08:40:35;;;;;;;5.45;3.47;;;7.40;82.50;;;6.56;69.78;97309.16;5064282;28;20420;-69
2022/02/24 08:43:01;;;;;;;7.30;4.00;;;7.50;82.50;;;6.70;69.40;97302.63;5060865;28;20854;-68
2022/02/24 08:45:29;;;;;;;4.88;3.47;;;7.70;81.90;;;6.82;68.91;97300.03;5056418;28;20435;-68
2022/02/24 08:47:55;;;;;;;5.43;3.58;;;7.70;81.30;;;6.88;68.77;97302.53;5062805;28;20506;-68
2022/02/24 08:50:21;;;;;;;8.40;3.80;;;7.80;81.20;;;6.91;68.15;97301.28;5062811;28;20440;-69
2022/02/24 08:52:47;;;;;;;5.50;3.55;;;7.90;80.30;;;6.93;68.47;97301.84;5060636;28;20887;-68
2022/02/24 08:55:14;;;;;;;5.47;3.28;;;7.90;80.70;;;6.98;68.45;97296.72;5060806;28;20416;-68
2022/02/24 08:57:40;;;;;;;4.72;3.20;;;7.90;80.90;;;7.03;68.52;97293.38;5042646;28;20438;-69
2022/02/24 09:00:08;;;;;;;3.70;2.75;;;8.00;81.00;;;7.07;68.92;97287.41;5064529;28;20411;-68
2022/02/24 09:02:35;;;;;;;4.25;2.83;;;8.00;81.20;;;7.13;69.06;97288.34;5063118;28;20463;-69
2022/02/24 09:05:01;;;;;;;6.38;3.03;;;8.10;81.40;;;7.32;67.90;97282.69;5063707;28;20399;-69
2022/02/24 09:07:27;;;;;;;5.55;3.03;;;8.20;80.30;;;7.53;66.81;97278.63;5062116;28;20905;-71
2022/02/24 09:09:53;;;;;;;8.77;3.00;;;8.40;78.80;;;7.67;66.19;97279.94;5067026;28;20426;-70
2022/02/24 09:12:20;;;;;;;3.72;2.20;;;8.60;78.80;;;7.89;66.17;97280.09;5060453;28;20395;-69
2022/02/24 09:14:46;;;;;;;4.07;2.33;;;8.80;78.60;;;8.15;64.95;97262.88;5060343;28;20412;-68
2022/02/24 09:17:12;;;;;;;4.03;2.22;;;9.00;77.10;;;8.43;64.10;97256.75;5068438;28;20446;-69
2022/02/24 09:19:43;;;;;;;6.70;2.58;;;9.30;76.50;;;8.70;60.74;97262.19;5069101;28;20411;-69
2022/02/24 09:22:12;;;;;;;3.97;2.22;;;9.70;72.40;;;8.79;60.25;97251.00;5047958;28;20818;-70
2022/02/24 09:24:38;;;;;;;6.15;2.30;;;9.70;71.40;;;8.81;59.00;97256.00;5059776;28;20407;-70
2022/02/24 09:27:04;;;;;;;4.70;2.58;;;9.80;70.70;;;8.85;59.61;97242.09;5067167;28;20408;-69
2022/02/24 09:29:33;;;;;;;4.40;2.10;;;9.80;71.00;;;8.92;59.31;97244.56;5061217;28;20462;-69
2022/02/24 09:31:59;;;;;;;5.28;2.40;;;9.80;70.60;;;8.93;59.08;97238.25;5065381;28;20505;-69
2022/02/24 09:34:25;;;;;;;3.10;1.90;;;9.90;69.90;;;8.97;58.86;97241.19;5067178;28;20441;-69
2022/02/24 09:36:51;;;;;;;5.57;1.80;;;9.90;69.80;;;9.03;58.63;97235.72;5066531;28;20415;-70
2022/02/24 09:39:17;;;;;;;4.30;2.08;;;9.90;69.50;;;9.05;58.23;97238.94;5062311;28;20505;-70
2022/02/24 09:41:45;;;;;;;3.47;1.83;;;10.00;69.30;;;9.16;58.63;97239.88;5040961;28;20452;-70
2022/02/24 09:44:10;;;;;;;4.72;2.05;;;10.00;69.70;;;9.30;56.95;97238.44;5058221;28;20408;-69
2022/02/24 09:46:41;;;;;;;5.10;2.00;;;10.20;67.70;;;9.39;57.38;97236.19;5056396;28;20924;-69
2022/02/24 09:49:09;;;;;;;4.45;2.10;;;10.30;68.60;;;9.50;57.13;97230.75;5072020;28;20406;-69
2022/02/24 09:51:35;;;;;;;5.60;2.42;;;10.40;67.80;;;9.50;56.08;97228.09;5065448;28;20424;-69
2022/02/24 09:54:02;;;;;;;3.85;2.05;;;10.40;66.70;;;9.51;56.36;97228.91;5048762;28;20532;-70
2022/02/24 09:56:31;;;;;;;3.05;1.90;;;10.40;66.90;;;9.58;56.60;97224.22;5049847;28;20409;-69
2022/02/24 09:58:59;;;;;;;4.78;2.22;;;10.50;67.50;;;9.61;55.46;97218.47;5054697;28;20418;-69
2022/02/24 10:01:25;;;;;;;4.03;1.92;;;10.50;66.00;;;9.79;55.67;97212.00;5066067;28;20401;-69
2022/02/24 10:03:59;;;;;;;2.95;1.88;;;10.70;66.00;;;10.15;55.33;97211.28;5060790;28;20655;-69
2022/02/24 10:06:36;;;;;;;4.63;1.90;;;11.00;66.20;;;10.66;54.75;97206.41;5063060;28;20492;-69
2022/02/24 10:09:03;;;;;;;6.65;2.80;;;11.40;65.40;;;11.00;52.09;97212.94;5062674;28;20417;-70
2022/02/24 10:11:31;;;;;;;4.88;1.95;;;11.90;61.60;;;11.21;52.01;97203.22;5058674;28;20935;-70
2022/02/24 10:14:05;;;;;;;2.92;1.88;;;12.10;61.50;;;11.34;51.31;97209.91;5066519;28;20507;-70
2022/02/24 10:16:49;;;;;;;3.75;1.77;;;12.20;61.00;;;11.36;51.04;97200.63;5064274;28;20450;-69
2022/02/24 10:19:17;;;;;;;3.20;1.98;;;12.20;60.00;;;11.42;50.98;97189.00;5064256;28;20548;-68
2022/02/24 10:22:03;;;;;;;3.83;1.90;;;12.20;60.30;;;11.71;50.58;97199.13;5061745;28;20898;-69
2022/02/24 10:24:30;;;;;;;2.17;1.63;;;12.40;60.40;;;12.26;49.35;97179.81;5067407;28;20503;-69
2022/02/24 10:27:19;;;;;;;4.50;1.60;;;13.00;58.80;;;13.21;47.39;97167.41;5065221;28;20400;-70
2022/02/24 10:30:04;;;;;;;3.20;1.60;;;13.90;57.10;;;13.65;44.67;97171.97;5065621;28;20406;-70